sensor_id;sensor_type;location;lat;lon;timestamp;P1;durP1;ratioP1;P2;durP2;ratioP2
10596;SDS011;5346;48.766;8.674;2022-12-07T00:02:07;379.00;;;18.50;;
10596;SDS011;5346;48.766;8.674;2022-12-07T00:04:40;333.80;;;16.33;;
10596;SDS011;5346;48.766;8.674;2022-12-07T00:07:07;284.43;;;17.40;;
10596;SDS011;5346;48.766;8.674;2022-12-07T00:09:34;58.77;;;10.37;;
10596;SDS011;5346;48.766;8.674;2022-12-07T00:12:08;95.77;;;11.13;;
10596;SDS011;5346;48.766;8.674;2022-12-07T00:14:35;130.47;;;12.57;;
10596;SDS011;5346;48.766;8.674;2022-12-07T00:17:02;87.93;;;10.33;;
10596;SDS011;5346;48.766;8.674;2022-12-07T00:19:36;18.03;;;8.13;;
10596;SDS011;5346;48.766;8.674;2022-12-07T00:22:03;14.63;;;8.20;;
10596;SDS011;5346;48.766;8.674;2022-12-07T00:24:30;9.63;;;6.53;;
10596;SDS011;5346;48.766;8.674;2022-12-07T00:27:04;12.40;;;8.33;;
10596;SDS011;5346;48.766;8.674;2022-12-07T00:29:31;15.30;;;8.50;;
10596;SDS011;5346;48.766;8.674;2022-12-07T00:31:58;12.50;;;7.50;;
10596;SDS011;5346;48.766;8.674;2022-12-07T00:34:32;13.30;;;8.30;;
10596;SDS011;5346;48.766;8.674;2022-12-07T00:36:59;14.83;;;8.03;;
10596;SDS011;5346;48.766;8.674;2022-12-07T00:39:26;13.70;;;8.60;;
10596;SDS011;5346;48.766;8.674;2022-12-07T00:42:00;12.67;;;7.50;;
10596;SDS011;5346;48.766;8.674;2022-12-07T00:44:40;15.43;;;7.63;;
10596;SDS011;5346;48.766;8.674;2022-12-07T00:47:13;10.90;;;7.27;;
10596;SDS011;5346;48.766;8.674;2022-12-07T00:49:40;11.37;;;7.60;;
10596;SDS011;5346;48.766;8.674;2022-12-07T00:52:07;11.63;;;7.10;;
10596;SDS011;5346;48.766;8.674;2022-12-07T00:54:41;13.60;;;7.67;;
10596;SDS011;5346;48.766;8.674;2022-12-07T00:57:08;12.17;;;7.80;;
10596;SDS011;5346;48.766;8.674;2022-12-07T00:59:35;11.27;;;7.40;;
10596;SDS011;5346;48.766;8.674;2022-12-07T01:02:09;12.20;;;7.57;;
10596;SDS011;5346;48.766;8.674;2022-12-07T01:04:36;12.17;;;7.97;;
10596;SDS011;5346;48.766;8.674;2022-12-07T01:07:03;11.27;;;7.60;;
10596;SDS011;5346;48.766;8.674;2022-12-07T01:09:37;12.93;;;7.23;;
10596;SDS011;5346;48.766;8.674;2022-12-07T01:12:04;12.90;;;7.47;;
10596;SDS011;5346;48.766;8.674;2022-12-07T01:14:31;10.93;;;7.60;;
10596;SDS011;5346;48.766;8.674;2022-12-07T01:17:05;9.67;;;6.47;;
10596;SDS011;5346;48.766;8.674;2022-12-07T01:19:32;9.37;;;6.70;;
10596;SDS011;5346;48.766;8.674;2022-12-07T01:21:59;11.23;;;6.77;;
10596;SDS011;5346;48.766;8.674;2022-12-07T01:24:33;10.33;;;7.20;;
10596;SDS011;5346;48.766;8.674;2022-12-07T01:27:00;8.87;;;6.40;;
10596;SDS011;5346;48.766;8.674;2022-12-07T01:29:27;9.00;;;6.27;;
10596;SDS011;5346;48.766;8.674;2022-12-07T01:32:00;9.30;;;6.20;;
10596;SDS011;5346;48.766;8.674;2022-12-07T01:34:27;9.73;;;6.77;;
10596;SDS011;5346;48.766;8.674;2022-12-07T01:36:54;8.73;;;6.03;;
10596;SDS011;5346;48.766;8.674;2022-12-07T01:39:28;8.30;;;5.50;;
10596;SDS011;5346;48.766;8.674;2022-12-07T01:41:55;9.07;;;5.73;;
10596;SDS011;5346;48.766;8.674;2022-12-07T01:47:54;8.83;;;5.80;;
10596;SDS011;5346;48.766;8.674;2022-12-07T01:50:29;8.30;;;5.87;;
10596;SDS011;5346;48.766;8.674;2022-12-07T01:52:59;8.90;;;6.10;;
10596;SDS011;5346;48.766;8.674;2022-12-07T01:55:40;7.67;;;5.50;;
10596;SDS011;5346;48.766;8.674;2022-12-07T01:58:12;8.93;;;5.70;;
10596;SDS011;5346;48.766;8.674;2022-12-07T02:00:47;9.13;;;6.40;;
10596;SDS011;5346;48.766;8.674;2022-12-07T02:03:30;9.37;;;6.63;;
10596;SDS011;5346;48.766;8.674;2022-12-07T02:06:12;11.07;;;6.87;;
10596;SDS011;5346;48.766;8.674;2022-12-07T02:08:45;10.23;;;6.70;;
10596;SDS011;5346;48.766;8.674;2022-12-07T02:11:19;11.23;;;7.00;;
10596;SDS011;5346;48.766;8.674;2022-12-07T02:13:47;8.83;;;6.60;;
10596;SDS011;5346;48.766;8.674;2022-12-07T02:28:36;8.70;;;5.90;;
10596;SDS011;5346;48.766;8.674;2022-12-07T02:31:28;10.00;;;6.07;;
10596;SDS011;5346;48.766;8.674;2022-12-07T02:40:31;7.63;;;5.33;;
10596;SDS011;5346;48.766;8.674;2022-12-07T02:43:25;9.67;;;5.80;;
10596;SDS011;5346;48.766;8.674;2022-12-07T02:46:21;11.73;;;6.10;;
10596;SDS011;5346;48.766;8.674;2022-12-07T02:49:02;9.57;;;6.03;;
10596;SDS011;5346;48.766;8.674;2022-12-07T02:51:31;9.17;;;6.27;;
10596;SDS011;5346;48.766;8.674;2022-12-07T02:53:59;8.10;;;6.17;;
10596;SDS011;5346;48.766;8.674;2022-12-07T02:57:21;9.57;;;6.03;;
10596;SDS011;5346;48.766;8.674;2022-12-07T03:05:25;10.30;;;7.17;;
10596;SDS011;5346;48.766;8.674;2022-12-07T03:08:21;10.77;;;7.00;;
10596;SDS011;5346;48.766;8.674;2022-12-07T03:11:13;11.90;;;7.10;;
10596;SDS011;5346;48.766;8.674;2022-12-07T03:14:33;9.90;;;6.40;;
10596;SDS011;5346;48.766;8.674;2022-12-07T03:17:16;11.33;;;6.70;;
10596;SDS011;5346;48.766;8.674;2022-12-07T03:20:03;11.63;;;7.80;;
10596;SDS011;5346;48.766;8.674;2022-12-07T03:22:35;10.70;;;6.63;;
10596;SDS011;5346;48.766;8.674;2022-12-07T03:25:14;12.10;;;6.87;;
10596;SDS011;5346;48.766;8.674;2022-12-07T03:27:44;11.20;;;7.17;;
10596;SDS011;5346;48.766;8.674;2022-12-07T03:30:38;11.73;;;7.37;;
10596;SDS011;5346;48.766;8.674;2022-12-07T03:33:20;13.10;;;7.57;;
10596;SDS011;5346;48.766;8.674;2022-12-07T03:36:04;11.37;;;6.90;;
10596;SDS011;5346;48.766;8.674;2022-12-07T03:38:40;13.40;;;7.53;;
10596;SDS011;5346;48.766;8.674;2022-12-07T03:41:25;10.93;;;7.20;;
10596;SDS011;5346;48.766;8.674;2022-12-07T03:44:17;11.33;;;7.10;;
10596;SDS011;5346;48.766;8.674;2022-12-07T03:49:43;10.20;;;6.60;;
10596;SDS011;5346;48.766;8.674;2022-12-07T03:52:25;11.87;;;6.83;;
10596;SDS011;5346;48.766;8.674;2022-12-07T03:58:06;10.73;;;6.77;;
10596;SDS011;5346;48.766;8.674;2022-12-07T04:00:38;10.50;;;6.57;;
10596;SDS011;5346;48.766;8.674;2022-12-07T04:03:15;12.40;;;7.97;;
10596;SDS011;5346;48.766;8.674;2022-12-07T04:05:43;10.57;;;7.00;;
10596;SDS011;5346;48.766;8.674;2022-12-07T04:08:11;11.33;;;7.00;;
10596;SDS011;5346;48.766;8.674;2022-12-07T04:10:45;11.67;;;7.53;;
10596;SDS011;5346;48.766;8.674;2022-12-07T04:13:12;11.70;;;6.83;;
10596;SDS011;5346;48.766;8.674;2022-12-07T04:15:40;9.73;;;6.37;;
10596;SDS011;5346;48.766;8.674;2022-12-07T04:18:13;10.87;;;7.23;;
10596;SDS011;5346;48.766;8.674;2022-12-07T04:20:41;10.20;;;6.73;;
10596;SDS011;5346;48.766;8.674;2022-12-07T04:23:08;9.53;;;6.00;;
10596;SDS011;5346;48.766;8.674;2022-12-07T04:25:41;9.87;;;5.83;;
10596;SDS011;5346;48.766;8.674;2022-12-07T04:28:08;10.03;;;6.30;;
10596;SDS011;5346;48.766;8.674;2022-12-07T04:30:36;8.17;;;5.70;;
10596;SDS011;5346;48.766;8.674;2022-12-07T04:33:09;10.57;;;5.73;;
10596;SDS011;5346;48.766;8.674;2022-12-07T04:35:36;8.13;;;5.77;;
10596;SDS011;5346;48.766;8.674;2022-12-07T04:38:03;11.33;;;5.43;;
10596;SDS011;5346;48.766;8.674;2022-12-07T04:40:37;8.57;;;5.50;;
10596;SDS011;5346;48.766;8.674;2022-12-07T04:43:04;7.77;;;5.43;;
10596;SDS011;5346;48.766;8.674;2022-12-07T04:45:46;11.20;;;5.50;;
10596;SDS011;5346;48.766;8.674;2022-12-07T04:48:14;8.23;;;5.53;;
10596;SDS011;5346;48.766;8.674;2022-12-07T04:50:41;7.83;;;5.20;;
10596;SDS011;5346;48.766;8.674;2022-12-07T04:53:16;9.77;;;5.03;;
10596;SDS011;5346;48.766;8.674;2022-12-07T04:55:43;9.87;;;5.40;;
10596;SDS011;5346;48.766;8.674;2022-12-07T04:58:12;8.97;;;5.40;;
10596;SDS011;5346;48.766;8.674;2022-12-07T05:00:46;9.63;;;5.30;;
10596;SDS011;5346;48.766;8.674;2022-12-07T05:03:13;8.50;;;5.03;;
10596;SDS011;5346;48.766;8.674;2022-12-07T05:05:43;7.77;;;4.97;;
10596;SDS011;5346;48.766;8.674;2022-12-07T05:08:16;9.33;;;4.97;;
10596;SDS011;5346;48.766;8.674;2022-12-07T05:10:43;9.00;;;4.83;;
10596;SDS011;5346;48.766;8.674;2022-12-07T05:13:11;10.17;;;5.40;;
10596;SDS011;5346;48.766;8.674;2022-12-07T05:15:46;7.37;;;4.43;;
10596;SDS011;5346;48.766;8.674;2022-12-07T05:18:14;7.70;;;4.70;;
10596;SDS011;5346;48.766;8.674;2022-12-07T05:20:42;10.53;;;5.47;;
10596;SDS011;5346;48.766;8.674;2022-12-07T05:23:15;7.93;;;4.60;;
10596;SDS011;5346;48.766;8.674;2022-12-07T05:25:43;6.83;;;4.57;;
10596;SDS011;5346;48.766;8.674;2022-12-07T05:28:11;8.47;;;5.27;;
10596;SDS011;5346;48.766;8.674;2022-12-07T05:30:45;7.60;;;4.97;;
10596;SDS011;5346;48.766;8.674;2022-12-07T05:33:12;9.20;;;5.13;;
10596;SDS011;5346;48.766;8.674;2022-12-07T05:35:39;7.27;;;4.97;;
10596;SDS011;5346;48.766;8.674;2022-12-07T05:38:13;8.60;;;4.90;;
10596;SDS011;5346;48.766;8.674;2022-12-07T05:40:40;7.83;;;5.03;;
10596;SDS011;5346;48.766;8.674;2022-12-07T05:43:07;9.77;;;5.40;;
10596;SDS011;5346;48.766;8.674;2022-12-07T05:45:41;8.37;;;5.27;;
10596;SDS011;5346;48.766;8.674;2022-12-07T05:48:08;9.30;;;4.80;;
10596;SDS011;5346;48.766;8.674;2022-12-07T05:50:35;8.30;;;5.47;;
10596;SDS011;5346;48.766;8.674;2022-12-07T05:53:09;8.67;;;5.20;;
10596;SDS011;5346;48.766;8.674;2022-12-07T05:55:36;7.17;;;4.73;;
10596;SDS011;5346;48.766;8.674;2022-12-07T05:58:03;9.07;;;4.97;;
10596;SDS011;5346;48.766;8.674;2022-12-07T06:00:56;7.80;;;5.00;;
10596;SDS011;5346;48.766;8.674;2022-12-07T06:03:23;7.30;;;5.13;;
10596;SDS011;5346;48.766;8.674;2022-12-07T06:05:51;8.50;;;5.13;;
10596;SDS011;5346;48.766;8.674;2022-12-07T06:08:24;8.00;;;5.13;;
10596;SDS011;5346;48.766;8.674;2022-12-07T06:10:52;10.00;;;5.53;;
10596;SDS011;5346;48.766;8.674;2022-12-07T06:13:47;9.60;;;5.33;;
10596;SDS011;5346;48.766;8.674;2022-12-07T06:16:14;6.87;;;4.77;;
10596;SDS011;5346;48.766;8.674;2022-12-07T06:18:41;8.87;;;5.30;;
10596;SDS011;5346;48.766;8.674;2022-12-07T06:21:14;7.20;;;4.90;;
10596;SDS011;5346;48.766;8.674;2022-12-07T06:23:41;8.47;;;5.63;;
10596;SDS011;5346;48.766;8.674;2022-12-07T06:26:09;8.67;;;5.77;;
10596;SDS011;5346;48.766;8.674;2022-12-07T06:28:43;9.37;;;6.13;;
10596;SDS011;5346;48.766;8.674;2022-12-07T06:31:10;8.37;;;5.20;;
10596;SDS011;5346;48.766;8.674;2022-12-07T06:33:39;8.93;;;5.63;;
10596;SDS011;5346;48.766;8.674;2022-12-07T06:36:14;7.33;;;5.47;;
10596;SDS011;5346;48.766;8.674;2022-12-07T06:38:41;9.53;;;6.03;;
10596;SDS011;5346;48.766;8.674;2022-12-07T06:41:08;8.67;;;5.87;;
10596;SDS011;5346;48.766;8.674;2022-12-07T06:43:49;9.80;;;5.90;;
10596;SDS011;5346;48.766;8.674;2022-12-07T06:46:21;8.33;;;5.73;;
10596;SDS011;5346;48.766;8.674;2022-12-07T06:48:56;8.37;;;5.50;;
10596;SDS011;5346;48.766;8.674;2022-12-07T06:51:24;10.03;;;5.80;;
10596;SDS011;5346;48.766;8.674;2022-12-07T06:53:51;8.67;;;5.73;;
10596;SDS011;5346;48.766;8.674;2022-12-07T06:56:24;7.83;;;5.57;;
10596;SDS011;5346;48.766;8.674;2022-12-07T06:58:51;10.30;;;5.43;;
10596;SDS011;5346;48.766;8.674;2022-12-07T07:01:18;9.47;;;5.63;;
10596;SDS011;5346;48.766;8.674;2022-12-07T07:03:52;7.60;;;5.27;;
10596;SDS011;5346;48.766;8.674;2022-12-07T07:06:20;10.23;;;5.20;;
10596;SDS011;5346;48.766;8.674;2022-12-07T07:08:47;7.43;;;4.93;;
10596;SDS011;5346;48.766;8.674;2022-12-07T07:11:20;7.60;;;4.83;;
10596;SDS011;5346;48.766;8.674;2022-12-07T07:13:47;8.70;;;4.87;;
10596;SDS011;5346;48.766;8.674;2022-12-07T07:16:14;6.77;;;4.57;;
10596;SDS011;5346;48.766;8.674;2022-12-07T07:18:48;7.83;;;4.37;;
10596;SDS011;5346;48.766;8.674;2022-12-07T07:21:16;6.70;;;4.10;;
10596;SDS011;5346;48.766;8.674;2022-12-07T07:23:43;7.60;;;4.83;;
10596;SDS011;5346;48.766;8.674;2022-12-07T07:26:17;6.30;;;4.47;;
10596;SDS011;5346;48.766;8.674;2022-12-07T07:28:48;6.33;;;4.07;;
10596;SDS011;5346;48.766;8.674;2022-12-07T07:31:15;5.57;;;4.00;;
10596;SDS011;5346;48.766;8.674;2022-12-07T07:33:49;6.43;;;4.00;;
10596;SDS011;5346;48.766;8.674;2022-12-07T07:36:16;5.53;;;4.17;;
10596;SDS011;5346;48.766;8.674;2022-12-07T07:38:43;5.53;;;4.37;;
10596;SDS011;5346;48.766;8.674;2022-12-07T07:41:17;5.93;;;3.93;;
10596;SDS011;5346;48.766;8.674;2022-12-07T07:43:44;4.97;;;3.70;;
10596;SDS011;5346;48.766;8.674;2022-12-07T07:46:24;5.93;;;4.30;;
10596;SDS011;5346;48.766;8.674;2022-12-07T07:48:51;4.40;;;3.57;;
10596;SDS011;5346;48.766;8.674;2022-12-07T07:51:18;5.27;;;3.57;;
10596;SDS011;5346;48.766;8.674;2022-12-07T07:53:52;5.80;;;3.57;;
10596;SDS011;5346;48.766;8.674;2022-12-07T07:56:20;6.20;;;3.77;;
10596;SDS011;5346;48.766;8.674;2022-12-07T07:58:47;4.77;;;3.63;;
10596;SDS011;5346;48.766;8.674;2022-12-07T08:01:24;5.57;;;3.70;;
10596;SDS011;5346;48.766;8.674;2022-12-07T08:03:51;5.30;;;3.97;;
10596;SDS011;5346;48.766;8.674;2022-12-07T08:06:18;5.97;;;3.73;;
10596;SDS011;5346;48.766;8.674;2022-12-07T08:08:57;6.03;;;4.17;;
10596;SDS011;5346;48.766;8.674;2022-12-07T08:11:25;6.37;;;4.10;;
10596;SDS011;5346;48.766;8.674;2022-12-07T08:13:52;6.27;;;4.17;;
10596;SDS011;5346;48.766;8.674;2022-12-07T08:16:26;6.90;;;4.03;;
10596;SDS011;5346;48.766;8.674;2022-12-07T08:18:53;6.23;;;4.07;;
10596;SDS011;5346;48.766;8.674;2022-12-07T08:21:20;5.17;;;3.87;;
10596;SDS011;5346;48.766;8.674;2022-12-07T08:23:53;5.17;;;3.80;;
10596;SDS011;5346;48.766;8.674;2022-12-07T08:26:20;4.77;;;3.40;;
10596;SDS011;5346;48.766;8.674;2022-12-07T08:28:48;4.37;;;3.43;;
10596;SDS011;5346;48.766;8.674;2022-12-07T08:31:21;4.80;;;4.03;;
10596;SDS011;5346;48.766;8.674;2022-12-07T08:33:49;6.43;;;3.83;;
10596;SDS011;5346;48.766;8.674;2022-12-07T08:36:16;6.47;;;3.87;;
10596;SDS011;5346;48.766;8.674;2022-12-07T08:38:50;7.23;;;4.43;;
10596;SDS011;5346;48.766;8.674;2022-12-07T08:41:37;6.90;;;3.60;;
10596;SDS011;5346;48.766;8.674;2022-12-07T08:44:18;6.97;;;4.07;;
10596;SDS011;5346;48.766;8.674;2022-12-07T08:46:53;5.17;;;3.37;;
10596;SDS011;5346;48.766;8.674;2022-12-07T08:49:40;4.43;;;3.70;;
10596;SDS011;5346;48.766;8.674;2022-12-07T08:52:13;5.80;;;3.67;;
10596;SDS011;5346;48.766;8.674;2022-12-07T08:54:48;6.47;;;3.77;;
10596;SDS011;5346;48.766;8.674;2022-12-07T08:57:15;6.97;;;4.00;;
10596;SDS011;5346;48.766;8.674;2022-12-07T08:59:43;4.60;;;3.70;;
10596;SDS011;5346;48.766;8.674;2022-12-07T09:02:16;4.80;;;3.97;;
10596;SDS011;5346;48.766;8.674;2022-12-07T09:04:43;5.70;;;3.50;;
10596;SDS011;5346;48.766;8.674;2022-12-07T09:07:11;5.53;;;4.33;;
10596;SDS011;5346;48.766;8.674;2022-12-07T09:09:45;5.60;;;4.30;;
10596;SDS011;5346;48.766;8.674;2022-12-07T09:12:12;6.80;;;3.70;;
10596;SDS011;5346;48.766;8.674;2022-12-07T09:14:39;5.30;;;3.60;;
10596;SDS011;5346;48.766;8.674;2022-12-07T09:17:13;6.07;;;4.23;;
10596;SDS011;5346;48.766;8.674;2022-12-07T09:19:40;5.27;;;4.10;;
10596;SDS011;5346;48.766;8.674;2022-12-07T09:22:08;6.00;;;4.13;;
10596;SDS011;5346;48.766;8.674;2022-12-07T09:24:49;5.47;;;4.17;;
10596;SDS011;5346;48.766;8.674;2022-12-07T09:27:16;5.60;;;3.90;;
10596;SDS011;5346;48.766;8.674;2022-12-07T09:29:51;6.93;;;4.07;;
10596;SDS011;5346;48.766;8.674;2022-12-07T09:32:19;5.40;;;3.97;;
10596;SDS011;5346;48.766;8.674;2022-12-07T09:34:46;6.63;;;4.50;;
10596;SDS011;5346;48.766;8.674;2022-12-07T09:37:22;5.77;;;4.13;;
10596;SDS011;5346;48.766;8.674;2022-12-07T09:39:49;6.37;;;4.10;;
10596;SDS011;5346;48.766;8.674;2022-12-07T09:42:27;5.47;;;3.50;;
10596;SDS011;5346;48.766;8.674;2022-12-07T09:45:10;4.80;;;3.43;;
10596;SDS011;5346;48.766;8.674;2022-12-07T09:47:50;4.97;;;3.53;;
10596;SDS011;5346;48.766;8.674;2022-12-07T09:50:24;8.33;;;4.30;;
10596;SDS011;5346;48.766;8.674;2022-12-07T09:52:56;4.90;;;3.73;;
10596;SDS011;5346;48.766;8.674;2022-12-07T09:55:42;4.50;;;3.47;;
10596;SDS011;5346;48.766;8.674;2022-12-07T09:58:20;6.27;;;3.73;;
10596;SDS011;5346;48.766;8.674;2022-12-07T10:01:00;4.60;;;3.73;;
10596;SDS011;5346;48.766;8.674;2022-12-07T10:06:32;4.20;;;3.10;;
10596;SDS011;5346;48.766;8.674;2022-12-07T10:08:59;5.03;;;3.33;;
10596;SDS011;5346;48.766;8.674;2022-12-07T10:11:27;4.27;;;3.07;;
10596;SDS011;5346;48.766;8.674;2022-12-07T10:14:11;4.70;;;3.27;;
10596;SDS011;5346;48.766;8.674;2022-12-07T10:16:40;5.47;;;3.17;;
10596;SDS011;5346;48.766;8.674;2022-12-07T10:19:31;3.73;;;3.07;;
10596;SDS011;5346;48.766;8.674;2022-12-07T10:22:13;4.90;;;3.23;;
10596;SDS011;5346;48.766;8.674;2022-12-07T10:24:57;3.87;;;2.90;;
10596;SDS011;5346;48.766;8.674;2022-12-07T10:27:56;3.80;;;2.80;;
10596;SDS011;5346;48.766;8.674;2022-12-07T10:30:51;3.60;;;2.60;;
10596;SDS011;5346;48.766;8.674;2022-12-07T10:39:03;3.63;;;2.83;;
10596;SDS011;5346;48.766;8.674;2022-12-07T10:53:36;2.80;;;2.33;;
10596;SDS011;5346;48.766;8.674;2022-12-07T11:04:21;3.30;;;2.37;;
10596;SDS011;5346;48.766;8.674;2022-12-07T11:10:23;5.23;;;3.13;;
10596;SDS011;5346;48.766;8.674;2022-12-07T11:16:42;3.80;;;3.10;;
10596;SDS011;5346;48.766;8.674;2022-12-07T11:22:44;3.43;;;3.00;;
10596;SDS011;5346;48.766;8.674;2022-12-07T11:25:35;3.27;;;2.70;;
10596;SDS011;5346;48.766;8.674;2022-12-07T11:32:04;3.17;;;2.53;;
10596;SDS011;5346;48.766;8.674;2022-12-07T11:35:03;3.83;;;2.60;;
10596;SDS011;5346;48.766;8.674;2022-12-07T11:37:43;3.83;;;2.67;;
10596;SDS011;5346;48.766;8.674;2022-12-07T11:43:28;3.50;;;2.60;;
10596;SDS011;5346;48.766;8.674;2022-12-07T11:46:11;3.30;;;2.87;;
10596;SDS011;5346;48.766;8.674;2022-12-07T11:49:04;5.10;;;3.40;;
10596;SDS011;5346;48.766;8.674;2022-12-07T11:52:18;4.10;;;3.30;;
10596;SDS011;5346;48.766;8.674;2022-12-07T11:55:19;5.43;;;3.57;;
10596;SDS011;5346;48.766;8.674;2022-12-07T11:58:08;5.10;;;4.10;;
10596;SDS011;5346;48.766;8.674;2022-12-07T12:01:09;6.33;;;4.70;;
10596;SDS011;5346;48.766;8.674;2022-12-07T12:04:19;6.90;;;4.70;;
10596;SDS011;5346;48.766;8.674;2022-12-07T12:07:21;6.70;;;4.83;;
10596;SDS011;5346;48.766;8.674;2022-12-07T12:10:22;8.77;;;5.70;;
10596;SDS011;5346;48.766;8.674;2022-12-07T12:19:42;10.63;;;7.57;;
10596;SDS011;5346;48.766;8.674;2022-12-07T12:22:37;9.60;;;6.93;;
10596;SDS011;5346;48.766;8.674;2022-12-07T12:25:18;12.17;;;6.60;;
10596;SDS011;5346;48.766;8.674;2022-12-07T12:28:02;10.67;;;7.17;;
10596;SDS011;5346;48.766;8.674;2022-12-07T12:33:11;10.07;;;7.37;;
10596;SDS011;5346;48.766;8.674;2022-12-07T12:39:12;11.27;;;6.90;;
10596;SDS011;5346;48.766;8.674;2022-12-07T12:41:52;13.87;;;7.43;;
10596;SDS011;5346;48.766;8.674;2022-12-07T12:44:39;12.13;;;7.63;;
10596;SDS011;5346;48.766;8.674;2022-12-07T12:50:23;12.50;;;9.00;;
10596;SDS011;5346;48.766;8.674;2022-12-07T12:53:24;9.97;;;7.13;;
10596;SDS011;5346;48.766;8.674;2022-12-07T12:56:06;14.77;;;9.17;;
10596;SDS011;5346;48.766;8.674;2022-12-07T12:59:24;8.33;;;6.40;;
10596;SDS011;5346;48.766;8.674;2022-12-07T13:05:20;6.03;;;4.57;;
10596;SDS011;5346;48.766;8.674;2022-12-07T13:07:57;5.90;;;5.00;;
10596;SDS011;5346;48.766;8.674;2022-12-07T13:10:46;5.67;;;4.37;;
10596;SDS011;5346;48.766;8.674;2022-12-07T13:15:42;6.03;;;4.73;;
10596;SDS011;5346;48.766;8.674;2022-12-07T13:23:38;4.10;;;3.70;;
10596;SDS011;5346;48.766;8.674;2022-12-07T13:26:31;4.60;;;3.50;;
10596;SDS011;5346;48.766;8.674;2022-12-07T13:31:42;4.50;;;3.70;;
10596;SDS011;5346;48.766;8.674;2022-12-07T13:34:40;4.13;;;3.60;;
10596;SDS011;5346;48.766;8.674;2022-12-07T13:37:15;3.53;;;3.17;;
10596;SDS011;5346;48.766;8.674;2022-12-07T13:40:20;3.73;;;3.10;;
10596;SDS011;5346;48.766;8.674;2022-12-07T13:42:57;6.23;;;4.63;;
10596;SDS011;5346;48.766;8.674;2022-12-07T13:45:39;4.23;;;3.10;;
10596;SDS011;5346;48.766;8.674;2022-12-07T13:48:27;3.30;;;3.00;;
10596;SDS011;5346;48.766;8.674;2022-12-07T13:51:16;3.70;;;3.07;;
10596;SDS011;5346;48.766;8.674;2022-12-07T13:53:57;4.47;;;2.83;;
10596;SDS011;5346;48.766;8.674;2022-12-07T13:56:42;4.27;;;3.47;;
10596;SDS011;5346;48.766;8.674;2022-12-07T13:59:14;5.17;;;3.43;;
10596;SDS011;5346;48.766;8.674;2022-12-07T14:01:57;4.57;;;3.80;;
10596;SDS011;5346;48.766;8.674;2022-12-07T14:07:20;6.50;;;3.63;;
10596;SDS011;5346;48.766;8.674;2022-12-07T14:09:55;4.83;;;3.50;;
10596;SDS011;5346;48.766;8.674;2022-12-07T14:12:37;3.50;;;2.90;;
10596;SDS011;5346;48.766;8.674;2022-12-07T14:15:04;3.70;;;3.00;;
10596;SDS011;5346;48.766;8.674;2022-12-07T14:17:32;3.83;;;3.13;;
10596;SDS011;5346;48.766;8.674;2022-12-07T14:20:28;4.53;;;3.80;;
10596;SDS011;5346;48.766;8.674;2022-12-07T14:23:21;4.13;;;3.37;;
10596;SDS011;5346;48.766;8.674;2022-12-07T14:28:52;4.80;;;3.43;;
10596;SDS011;5346;48.766;8.674;2022-12-07T14:31:45;4.17;;;3.40;;
10596;SDS011;5346;48.766;8.674;2022-12-07T14:34:13;5.03;;;3.73;;
10596;SDS011;5346;48.766;8.674;2022-12-07T14:36:40;6.13;;;3.70;;
10596;SDS011;5346;48.766;8.674;2022-12-07T14:39:13;6.33;;;4.53;;
10596;SDS011;5346;48.766;8.674;2022-12-07T14:41:40;5.97;;;4.30;;
10596;SDS011;5346;48.766;8.674;2022-12-07T14:44:24;7.13;;;4.60;;
10596;SDS011;5346;48.766;8.674;2022-12-07T14:47:09;7.10;;;5.33;;
10596;SDS011;5346;48.766;8.674;2022-12-07T14:50:03;6.77;;;4.47;;
10596;SDS011;5346;48.766;8.674;2022-12-07T14:52:32;6.17;;;4.50;;
10596;SDS011;5346;48.766;8.674;2022-12-07T14:55:28;6.00;;;4.50;;
10596;SDS011;5346;48.766;8.674;2022-12-07T14:57:58;8.13;;;5.13;;
10596;SDS011;5346;48.766;8.674;2022-12-07T15:00:32;8.00;;;5.20;;
10596;SDS011;5346;48.766;8.674;2022-12-07T15:03:00;7.90;;;5.10;;
10596;SDS011;5346;48.766;8.674;2022-12-07T15:05:27;9.73;;;6.40;;
10596;SDS011;5346;48.766;8.674;2022-12-07T15:08:00;8.90;;;6.13;;
10596;SDS011;5346;48.766;8.674;2022-12-07T15:10:29;8.93;;;5.90;;
10596;SDS011;5346;48.766;8.674;2022-12-07T15:12:59;9.37;;;6.30;;
10596;SDS011;5346;48.766;8.674;2022-12-07T15:15:54;10.23;;;6.47;;
10596;SDS011;5346;48.766;8.674;2022-12-07T15:18:22;12.13;;;6.70;;
10596;SDS011;5346;48.766;8.674;2022-12-07T15:20:50;11.53;;;7.73;;
10596;SDS011;5346;48.766;8.674;2022-12-07T15:23:25;11.70;;;7.57;;
10596;SDS011;5346;48.766;8.674;2022-12-07T15:25:51;13.07;;;7.03;;
10596;SDS011;5346;48.766;8.674;2022-12-07T15:28:19;11.53;;;6.83;;
10596;SDS011;5346;48.766;8.674;2022-12-07T15:30:52;12.43;;;7.13;;
10596;SDS011;5346;48.766;8.674;2022-12-07T15:33:20;12.93;;;7.63;;
10596;SDS011;5346;48.766;8.674;2022-12-07T15:35:47;13.03;;;6.83;;
10596;SDS011;5346;48.766;8.674;2022-12-07T15:38:22;15.40;;;9.47;;
10596;SDS011;5346;48.766;8.674;2022-12-07T15:41:09;16.50;;;10.70;;
10596;SDS011;5346;48.766;8.674;2022-12-07T15:43:43;12.27;;;8.03;;
10596;SDS011;5346;48.766;8.674;2022-12-07T15:46:42;11.40;;;7.70;;
10596;SDS011;5346;48.766;8.674;2022-12-07T15:49:18;13.30;;;8.63;;
10596;SDS011;5346;48.766;8.674;2022-12-07T15:51:45;12.93;;;7.87;;
10596;SDS011;5346;48.766;8.674;2022-12-07T15:54:23;13.33;;;8.67;;
10596;SDS011;5346;48.766;8.674;2022-12-07T15:57:00;13.57;;;8.17;;
10596;SDS011;5346;48.766;8.674;2022-12-07T15:59:32;13.93;;;8.83;;
10596;SDS011;5346;48.766;8.674;2022-12-07T16:01:59;15.23;;;9.13;;
10596;SDS011;5346;48.766;8.674;2022-12-07T16:04:36;14.57;;;8.77;;
10596;SDS011;5346;48.766;8.674;2022-12-07T16:07:03;12.93;;;8.40;;
10596;SDS011;5346;48.766;8.674;2022-12-07T16:09:30;14.30;;;8.90;;
10596;SDS011;5346;48.766;8.674;2022-12-07T16:12:05;13.40;;;8.77;;
10596;SDS011;5346;48.766;8.674;2022-12-07T16:14:32;14.90;;;8.67;;
10596;SDS011;5346;48.766;8.674;2022-12-07T16:17:00;12.17;;;8.30;;
10596;SDS011;5346;48.766;8.674;2022-12-07T16:19:34;15.57;;;8.73;;
10596;SDS011;5346;48.766;8.674;2022-12-07T16:22:03;13.23;;;8.30;;
10596;SDS011;5346;48.766;8.674;2022-12-07T16:24:31;14.80;;;9.40;;
10596;SDS011;5346;48.766;8.674;2022-12-07T16:27:05;13.90;;;8.60;;
10596;SDS011;5346;48.766;8.674;2022-12-07T16:29:32;14.63;;;9.17;;
10596;SDS011;5346;48.766;8.674;2022-12-07T16:31:59;15.13;;;8.33;;
10596;SDS011;5346;48.766;8.674;2022-12-07T16:34:33;13.10;;;8.53;;
10596;SDS011;5346;48.766;8.674;2022-12-07T16:37:01;13.40;;;8.70;;
10596;SDS011;5346;48.766;8.674;2022-12-07T16:39:30;13.97;;;8.60;;
10596;SDS011;5346;48.766;8.674;2022-12-07T16:42:05;12.03;;;8.13;;
10596;SDS011;5346;48.766;8.674;2022-12-07T16:44:32;13.47;;;8.57;;
10596;SDS011;5346;48.766;8.674;2022-12-07T16:47:20;12.10;;;8.07;;
10596;SDS011;5346;48.766;8.674;2022-12-07T16:49:47;13.63;;;8.60;;
10596;SDS011;5346;48.766;8.674;2022-12-07T16:52:21;15.50;;;8.20;;
10596;SDS011;5346;48.766;8.674;2022-12-07T16:54:48;14.90;;;8.63;;
10596;SDS011;5346;48.766;8.674;2022-12-07T16:57:16;13.57;;;8.60;;
10596;SDS011;5346;48.766;8.674;2022-12-07T16:59:51;13.80;;;8.33;;
10596;SDS011;5346;48.766;8.674;2022-12-07T17:02:19;13.00;;;7.93;;
10596;SDS011;5346;48.766;8.674;2022-12-07T17:04:46;12.83;;;8.83;;
10596;SDS011;5346;48.766;8.674;2022-12-07T17:07:20;11.90;;;7.90;;
10596;SDS011;5346;48.766;8.674;2022-12-07T17:09:47;14.67;;;8.63;;
10596;SDS011;5346;48.766;8.674;2022-12-07T17:12:14;12.07;;;7.80;;
10596;SDS011;5346;48.766;8.674;2022-12-07T17:14:47;10.43;;;7.27;;
10596;SDS011;5346;48.766;8.674;2022-12-07T17:17:34;12.13;;;7.83;;
10596;SDS011;5346;48.766;8.674;2022-12-07T17:20:09;12.17;;;7.70;;
10596;SDS011;5346;48.766;8.674;2022-12-07T17:22:36;13.13;;;8.20;;
10596;SDS011;5346;48.766;8.674;2022-12-07T17:25:04;12.83;;;7.27;;
10596;SDS011;5346;48.766;8.674;2022-12-07T17:27:38;12.63;;;8.43;;
10596;SDS011;5346;48.766;8.674;2022-12-07T17:30:06;13.53;;;8.63;;
10596;SDS011;5346;48.766;8.674;2022-12-07T17:32:38;12.73;;;8.33;;
10596;SDS011;5346;48.766;8.674;2022-12-07T17:35:11;13.10;;;8.33;;
10596;SDS011;5346;48.766;8.674;2022-12-07T17:37:38;10.50;;;7.40;;